createdAt,value
2023-03-31T00:01:01.000Z,99184.44
2023-03-31T00:03:29.851Z,99182.72
2023-03-31T00:05:58.957Z,99175.09
2023-03-31T00:08:30.951Z,99186.06
2023-03-31T00:11:00.961Z,99183.56
2023-03-31T00:13:29.430Z,99177.66
2023-03-31T00:15:58.453Z,99180.22
2023-03-31T00:18:27.166Z,99175.16
2023-03-31T00:20:58.882Z,99176.00
2023-03-31T00:23:30.138Z,99164.16
2023-03-31T00:25:58.721Z,99169.16
2023-03-31T00:28:27.157Z,99163.19
2023-03-31T00:30:55.530Z,99160.59
2023-03-31T00:33:23.991Z,99156.38
2023-03-31T00:35:52.947Z,99164.78
2023-03-31T00:38:22.126Z,99155.38
2023-03-31T00:40:53.909Z,99162.09
2023-03-31T00:43:31.200Z,99156.97
2023-03-31T00:46:18.124Z,99160.34
2023-03-31T00:48:50.340Z,99158.63
2023-03-31T00:51:20.300Z,99165.38
2023-03-31T00:53:52.029Z,99162.84
2023-03-31T00:56:22.455Z,99161.22
2023-03-31T00:58:51.051Z,99161.19
2023-03-31T01:01:22.143Z,99160.38
2023-03-31T01:03:52.951Z,99156.97
2023-03-31T01:06:21.441Z,99155.28
2023-03-31T01:08:51.310Z,99141.78
2023-03-31T01:11:22.678Z,99142.56
2023-03-31T01:13:53.025Z,99134.94
2023-03-31T01:16:21.495Z,99132.34
2023-03-31T01:18:50.602Z,99124.66
2023-03-31T01:21:40.050Z,99125.53
2023-03-31T01:24:19.381Z,99128.03
2023-03-31T01:26:59.035Z,99131.38
2023-03-31T01:29:44.133Z,99121.22
2023-03-31T01:32:22.417Z,99109.38
2023-03-31T01:35:08.704Z,99102.59
2023-03-31T01:37:52.330Z,99099.16
2023-03-31T01:40:26.786Z,99097.38
2023-03-31T01:42:58.469Z,99100.72
2023-03-31T01:45:37.595Z,99087.97
2023-03-31T01:48:13.258Z,99085.47
2023-03-31T01:50:46.062Z,99093.84
2023-03-31T01:53:18.494Z,99090.44
2023-03-31T01:55:55.954Z,99098.06
2023-03-31T01:58:27.255Z,99103.97
2023-03-31T02:01:02.023Z,99107.38
2023-03-31T02:03:34.656Z,99105.66
2023-03-31T02:06:09.913Z,99106.47
2023-03-31T02:08:41.889Z,99103.09
2023-03-31T02:11:11.935Z,99101.44
2023-03-31T02:13:42.042Z,99090.56
2023-03-31T02:16:14.557Z,99090.59
2023-03-31T02:18:45.775Z,99099.03
2023-03-31T02:21:14.904Z,99100.72
2023-03-31T02:23:45.932Z,99094.75
2023-03-31T02:26:17.528Z,99101.44
2023-03-31T02:28:46.295Z,99109.84
2023-03-31T02:31:19.626Z,99103.91
2023-03-31T02:33:48.796Z,99105.56
2023-03-31T02:36:17.622Z,99098.00
2023-03-31T02:38:49.522Z,99107.38
2023-03-31T02:41:19.451Z,99108.25
2023-03-31T02:43:47.944Z,99113.31
2023-03-31T02:46:16.372Z,99108.25
2023-03-31T02:48:46.025Z,99115.84
2023-03-31T02:51:24.967Z,99120.84
2023-03-31T02:54:07.897Z,99119.13
2023-03-31T02:57:01.680Z,99109.91
2023-03-31T02:59:40.971Z,99110.06
2023-03-31T03:02:15.007Z,99109.22
2023-03-31T03:04:55.938Z,99104.28
2023-03-31T03:07:26.889Z,99104.34
2023-03-31T03:10:01.383Z,99093.41
2023-03-31T03:12:35.514Z,99095.97
2023-03-31T03:15:07.275Z,99085.88
2023-03-31T03:17:39.444Z,99094.31
2023-03-31T03:20:09.786Z,99090.94
2023-03-31T03:22:38.817Z,99095.19
2023-03-31T03:25:09.708Z,99092.66
2023-03-31T03:27:39.957Z,99092.59
2023-03-31T03:30:10.015Z,99088.28
2023-03-31T03:32:38.884Z,99087.41
2023-03-31T03:35:08.083Z,99089.94
2023-03-31T03:37:36.429Z,99093.28
2023-03-31T03:40:06.217Z,99096.69
2023-03-31T03:42:35.007Z,99095.00
2023-03-31T03:45:05.036Z,99092.53
2023-03-31T03:47:33.511Z,99091.72
2023-03-31T03:50:01.801Z,99085.81
2023-03-31T03:52:30.653Z,99081.63
2023-03-31T03:54:59.100Z,99093.47
2023-03-31T03:57:27.629Z,99094.34
2023-03-31T03:59:56.189Z,99088.44
2023-03-31T04:02:29.038Z,99094.38
2023-03-31T04:04:58.379Z,99085.91
2023-03-31T04:07:27.264Z,99089.31
2023-03-31T04:09:55.690Z,99091.03
2023-03-31T04:12:24.079Z,99086.84
2023-03-31T04:14:52.593Z,99079.28
2023-03-31T04:17:33.805Z,99085.19
2023-03-31T04:20:06.071Z,99075.88
2023-03-31T04:22:41.239Z,99075.84
2023-03-31T04:25:15.161Z,99082.66
2023-03-31T04:27:46.958Z,99080.97
2023-03-31T04:30:23.091Z,99079.28
2023-03-31T04:32:54.309Z,99069.13
2023-03-31T04:35:26.334Z,99066.59
2023-03-31T04:37:59.429Z,99073.34
2023-03-31T04:40:27.984Z,99068.25
2023-03-31T04:42:56.424Z,99065.72
2023-03-31T04:45:25.015Z,99065.72
2023-03-31T04:47:53.516Z,99053.09
2023-03-31T04:50:23.394Z,99050.59
2023-03-31T04:52:52.310Z,99046.34
2023-03-31T04:55:20.687Z,99040.38
2023-03-31T04:57:49.199Z,99037.00
2023-03-31T05:00:18.213Z,99031.91
2023-03-31T05:02:46.663Z,99038.66
2023-03-31T05:05:15.610Z,99042.00
2023-03-31T05:07:46.386Z,99035.28
2023-03-31T05:10:14.809Z,99033.63
2023-03-31T05:12:43.205Z,99033.72
2023-03-31T05:15:12.118Z,99043.03
2023-03-31T05:17:40.599Z,99038.84
2023-03-31T05:20:09.732Z,99040.56
2023-03-31T05:22:38.872Z,99038.03
2023-03-31T05:25:10.317Z,99034.69
2023-03-31T05:27:39.156Z,99031.31
2023-03-31T05:30:08.434Z,99040.59
2023-03-31T05:32:36.975Z,99049.06
2023-03-31T05:35:05.590Z,99047.41
2023-03-31T05:37:34.689Z,99040.63
2023-03-31T05:40:04.986Z,99044.00
2023-03-31T05:42:34.909Z,99037.28
2023-03-31T05:45:03.315Z,99032.25
2023-03-31T05:47:32.543Z,99023.75
2023-03-31T05:50:01.062Z,99030.50
2023-03-31T05:52:29.508Z,99032.16
2023-03-31T05:54:57.904Z,99033.84
2023-03-31T05:57:26.438Z,99032.22
2023-03-31T05:59:56.333Z,99032.22
2023-03-31T06:02:25.070Z,99033.94
2023-03-31T06:04:53.501Z,99030.56
2023-03-31T06:07:22.422Z,99024.59
2023-03-31T06:09:50.802Z,99020.34
2023-03-31T06:12:19.332Z,99024.59
2023-03-31T06:14:47.676Z,99017.00
2023-03-31T06:17:17.642Z,99025.47
2023-03-31T06:19:46.057Z,99023.78
2023-03-31T06:22:14.438Z,99018.75
2023-03-31T06:24:42.885Z,99019.56
2023-03-31T06:27:11.351Z,99027.22
2023-03-31T06:29:39.828Z,99017.06
2023-03-31T06:32:08.310Z,99015.34
2023-03-31T06:34:38.242Z,99021.31
2023-03-31T06:37:06.773Z,99013.72
2023-03-31T06:39:35.108Z,99009.47
2023-03-31T06:42:04.993Z,99008.63
2023-03-31T06:44:34.541Z,99012.88
2023-03-31T06:47:02.896Z,99008.63
2023-03-31T06:49:31.326Z,98995.09
2023-03-31T06:52:01.442Z,98996.78
2023-03-31T06:54:29.817Z,99000.19
2023-03-31T06:56:58.328Z,99000.19
2023-03-31T06:59:26.743Z,98996.81
2023-03-31T07:01:55.207Z,98996.78
2023-03-31T07:04:23.882Z,98993.41
2023-03-31T07:06:52.265Z,98981.59
2023-03-31T07:09:23.848Z,98990.03
2023-03-31T07:11:52.333Z,98984.94
2023-03-31T07:14:20.647Z,98985.78
2023-03-31T07:16:51.031Z,98981.56
2023-03-31T07:19:19.637Z,98978.19
2023-03-31T07:21:47.954Z,98980.69
2023-03-31T07:24:16.470Z,98983.22
2023-03-31T07:26:46.488Z,98981.53
2023-03-31T07:29:14.885Z,98974.72
2023-03-31T07:31:43.375Z,98976.44
2023-03-31T07:34:11.926Z,98972.19
2023-03-31T07:36:41.338Z,98973.91
2023-03-31T07:39:09.746Z,98965.41
2023-03-31T07:41:38.077Z,98962.84
2023-03-31T07:44:07.890Z,98957.75
2023-03-31T07:46:36.477Z,98946.69
2023-03-31T07:49:04.975Z,98939.91
2023-03-31T07:51:33.388Z,98940.75
2023-03-31T07:54:01.787Z,98930.56
2023-03-31T07:56:30.187Z,98928.88
2023-03-31T07:58:58.639Z,98920.38
2023-03-31T08:01:29.065Z,98914.38
2023-03-31T08:03:57.709Z,98913.50
2023-03-31T08:06:27.040Z,98899.84
2023-03-31T08:08:55.639Z,98895.47
2023-03-31T08:11:24.556Z,98893.75
2023-03-31T08:13:53.326Z,98888.56
2023-03-31T08:16:21.668Z,98890.16
2023-03-31T08:18:52.051Z,98890.88
2023-03-31T08:21:22.987Z,98887.22
2023-03-31T08:23:55.286Z,98890.28
2023-03-31T08:26:24.491Z,98893.31
2023-03-31T08:28:53.094Z,98888.97
2023-03-31T08:31:26.675Z,98878.66
2023-03-31T08:33:57.583Z,98873.63
2023-03-31T08:36:26.232Z,98872.69
2023-03-31T08:38:54.757Z,98862.28
2023-03-31T08:41:35.700Z,98860.13
2023-03-31T08:44:06.553Z,98852.16
2023-03-31T08:46:36.930Z,98845.63
2023-03-31T08:49:07.562Z,98852.56
2023-03-31T08:51:38.799Z,98850.78
2023-03-31T08:54:08.256Z,98837.00
2023-03-31T08:56:40.058Z,98839.66
2023-03-31T08:59:17.855Z,98832.69
2023-03-31T09:02:02.410Z,98828.16
2023-03-31T09:04:45.043Z,98829.22
2023-03-31T09:07:17.576Z,98830.56
2023-03-31T09:09:51.966Z,98821.16
2023-03-31T09:12:22.529Z,98813.63
2023-03-31T09:14:56.125Z,98815.47
2023-03-31T09:17:26.176Z,98807.88
2023-03-31T09:19:59.265Z,98813.72
2023-03-31T09:22:30.595Z,98801.84
2023-03-31T09:25:02.801Z,98798.44
2023-03-31T09:27:35.114Z,98794.88
2023-03-31T09:30:05.915Z,98792.09
2023-03-31T09:32:34.354Z,98794.44
2023-03-31T09:35:15.639Z,98790.88
2023-03-31T09:37:44.105Z,98780.69
2023-03-31T09:40:18.173Z,98768.69
2023-03-31T09:42:47.347Z,98766.19
2023-03-31T09:45:17.262Z,98758.50
2023-03-31T09:47:47.576Z,98764.44
2023-03-31T09:50:17.664Z,98762.03
2023-03-31T09:52:48.038Z,98749.97
2023-03-31T09:55:35.873Z,98754.94
2023-03-31T09:58:08.617Z,98751.22
2023-03-31T10:00:37.678Z,98745.59
2023-03-31T10:03:08.123Z,98747.69
2023-03-31T10:05:40.937Z,98749.09
2023-03-31T10:08:21.274Z,98751.31
2023-03-31T10:10:51.174Z,98749.53
2023-03-31T10:13:22.058Z,98748.50
2023-03-31T10:15:53.471Z,98740.50
2023-03-31T10:18:23.190Z,98735.94
2023-03-31T10:20:54.225Z,98729.44
2023-03-31T10:23:26.214Z,98736.22
2023-03-31T10:25:55.066Z,98732.09
2023-03-31T10:28:24.038Z,98726.34
2023-03-31T10:30:55.165Z,98727.06
2023-03-31T10:33:25.969Z,98721.38
2023-03-31T10:35:59.230Z,98723.47
2023-03-31T10:38:29.297Z,98720.97
2023-03-31T10:40:59.000Z,98722.78
2023-03-31T10:43:28.737Z,98713.75
2023-03-31T10:45:59.095Z,98697.72
2023-03-31T10:48:28.396Z,98694.38
2023-03-31T10:51:00.394Z,98689.19
2023-03-31T10:53:29.278Z,98688.41
2023-03-31T10:56:11.082Z,98680.59
2023-03-31T10:58:52.076Z,98677.94
2023-03-31T11:01:36.638Z,98672.72
2023-03-31T11:04:16.445Z,98667.41
2023-03-31T11:06:54.102Z,98667.16
2023-03-31T11:09:36.813Z,98670.19
2023-03-31T11:12:11.885Z,98659.44
2023-03-31T11:14:44.856Z,98646.19
2023-03-31T11:17:19.111Z,98652.72
2023-03-31T11:19:53.456Z,98650.75
2023-03-31T11:22:27.588Z,98651.34
2023-03-31T11:25:07.216Z,98638.19
2023-03-31T11:27:50.149Z,98625.84
2023-03-31T11:30:21.826Z,98622.16
2023-03-31T11:32:57.636Z,98625.31
2023-03-31T11:35:43.798Z,98613.50
2023-03-31T11:38:30.429Z,98610.75
2023-03-31T11:41:02.053Z,98600.34
2023-03-31T11:43:34.897Z,98601.00
2023-03-31T11:46:06.153Z,98602.47
2023-03-31T11:48:39.018Z,98598.03
2023-03-31T11:51:11.577Z,98595.56
2023-03-31T11:53:43.443Z,98585.09
2023-03-31T11:56:12.406Z,98586.78
2023-03-31T11:58:43.904Z,98580.03
2023-03-31T12:01:18.387Z,98569.16
2023-03-31T12:03:52.465Z,98566.75
2023-03-31T12:06:23.548Z,98556.56
2023-03-31T12:08:59.159Z,98550.59
2023-03-31T12:11:31.146Z,98547.09
2023-03-31T12:14:03.498Z,98535.00
2023-03-31T12:16:37.101Z,98527.84
2023-03-31T12:19:09.505Z,98523.31
2023-03-31T12:21:40.466Z,98515.41
2023-03-31T12:24:13.480Z,98514.31
2023-03-31T12:26:48.597Z,98513.34
2023-03-31T12:29:23.599Z,98516.63
2023-03-31T12:31:54.019Z,98519.00
2023-03-31T12:34:24.828Z,98503.06
2023-03-31T12:37:02.151Z,98500.69
2023-03-31T12:39:40.777Z,98489.59
2023-03-31T12:42:25.173Z,98484.16
2023-03-31T12:44:58.840Z,98470.94
2023-03-31T12:47:41.618Z,98454.56
2023-03-31T12:50:21.829Z,98424.94
2023-03-31T12:52:56.493Z,98395.72
2023-03-31T12:55:42.764Z,98378.94
2023-03-31T12:58:22.393Z,98374.53
2023-03-31T13:01:07.251Z,98366.41
2023-03-31T13:03:45.383Z,98365.72
2023-03-31T13:06:33.931Z,98355.13
2023-03-31T13:09:05.331Z,98356.88
2023-03-31T13:11:39.638Z,98349.53
2023-03-31T13:14:13.826Z,98335.16
2023-03-31T13:16:43.878Z,98331.94
2023-03-31T13:19:14.136Z,98318.44
2023-03-31T13:21:53.511Z,98320.97
2023-03-31T13:24:25.252Z,98306.75
2023-03-31T13:26:56.974Z,98306.91
2023-03-31T13:29:26.543Z,98308.00
2023-03-31T13:32:05.721Z,98285.06
2023-03-31T13:34:39.581Z,98279.06
2023-03-31T13:37:17.211Z,98282.59
2023-03-31T13:40:08.624Z,98282.72
2023-03-31T13:42:54.032Z,98274.34
2023-03-31T13:45:29.475Z,98265.84
2023-03-31T13:48:05.618Z,98269.53
2023-03-31T13:50:53.308Z,98275.56
2023-03-31T13:53:30.065Z,98268.88
2023-03-31T13:56:10.028Z,98269.97
2023-03-31T13:58:49.728Z,98276.09
2023-03-31T14:01:36.149Z,98269.28
2023-03-31T14:04:15.127Z,98272.63
2023-03-31T14:06:48.827Z,98291.47
2023-03-31T14:09:22.350Z,98275.97
2023-03-31T14:11:50.848Z,98269.09
2023-03-31T14:14:20.098Z,98263.94
2023-03-31T14:16:50.832Z,98249.34
2023-03-31T14:19:30.342Z,98241.63
2023-03-31T14:22:06.097Z,98241.34
2023-03-31T14:24:39.120Z,98233.19
2023-03-31T14:27:13.709Z,98229.06
2023-03-31T14:29:45.281Z,98232.63
2023-03-31T14:32:21.197Z,98223.13
2023-03-31T14:35:00.291Z,98208.00
2023-03-31T14:37:31.052Z,98204.38
2023-03-31T14:40:00.139Z,98200.13
2023-03-31T14:42:31.202Z,98194.38
2023-03-31T14:45:03.356Z,98183.91
2023-03-31T14:47:32.133Z,98187.31
2023-03-31T14:50:02.950Z,98189.44
2023-03-31T14:52:36.032Z,98182.03
2023-03-31T14:55:04.611Z,98179.75
2023-03-31T14:57:34.329Z,98178.38
2023-03-31T15:00:05.416Z,98181.69
2023-03-31T15:02:35.603Z,98185.22
2023-03-31T15:05:05.651Z,98193.97
2023-03-31T15:07:36.289Z,98187.31
2023-03-31T15:10:06.250Z,98192.69
2023-03-31T15:12:35.261Z,98189.56
2023-03-31T15:15:06.365Z,98197.47
2023-03-31T15:17:39.302Z,98193.59
2023-03-31T15:20:25.719Z,98197.38
2023-03-31T15:22:55.681Z,98191.69
2023-03-31T15:25:25.940Z,98191.84
2023-03-31T15:27:56.021Z,98185.31
2023-03-31T15:30:26.239Z,98175.22
2023-03-31T15:32:58.959Z,98151.38
2023-03-31T15:35:38.033Z,98156.69
2023-03-31T15:38:08.141Z,98155.97
2023-03-31T15:40:39.868Z,98146.97
2023-03-31T15:43:24.350Z,98137.78
2023-03-31T15:45:55.320Z,98142.31
2023-03-31T15:48:24.993Z,98148.50
2023-03-31T15:51:00.192Z,98147.94
2023-03-31T15:53:37.436Z,98155.00
2023-03-31T15:56:07.126Z,98156.16
2023-03-31T15:58:46.388Z,98152.19
2023-03-31T16:01:17.935Z,98147.34
2023-03-31T16:03:46.645Z,98137.31
2023-03-31T16:06:22.426Z,98138.44
2023-03-31T16:08:57.593Z,98131.00
2023-03-31T16:11:28.493Z,98133.84
2023-03-31T16:14:01.315Z,98125.50
2023-03-31T16:16:30.949Z,98110.34
2023-03-31T16:19:04.387Z,98101.03
2023-03-31T16:21:37.427Z,98102.16
2023-03-31T16:24:08.034Z,98107.53
2023-03-31T16:26:37.844Z,98123.22
2023-03-31T16:29:06.778Z,98118.34
2023-03-31T16:31:36.647Z,98103.97
2023-03-31T16:34:06.442Z,98090.38
2023-03-31T16:36:35.192Z,98075.84
2023-03-31T16:39:05.517Z,98049.53
2023-03-31T16:41:36.902Z,98041.47
2023-03-31T16:44:06.597Z,98064.81
2023-03-31T16:46:35.074Z,98076.00
2023-03-31T16:49:03.475Z,98064.97
2023-03-31T16:51:31.902Z,98064.31
2023-03-31T16:54:00.288Z,98055.06
2023-03-31T16:56:28.806Z,98061.22
2023-03-31T16:58:59.215Z,98063.91
2023-03-31T17:01:28.316Z,98068.41
2023-03-31T17:03:57.025Z,98077.19
2023-03-31T17:06:25.658Z,98066.34
2023-03-31T17:08:54.091Z,98073.25
2023-03-31T17:11:23.020Z,98059.63
2023-03-31T17:13:51.397Z,98073.50
2023-03-31T17:16:29.425Z,98091.66
2023-03-31T17:19:05.209Z,98097.84
2023-03-31T17:21:33.561Z,98096.31
2023-03-31T17:24:03.252Z,98092.97
2023-03-31T17:26:32.047Z,98092.81
2023-03-31T17:29:00.747Z,98097.94
2023-03-31T17:31:32.144Z,98097.84
2023-03-31T17:34:01.628Z,98095.81
2023-03-31T17:36:30.159Z,98103.31
2023-03-31T17:39:00.582Z,98118.59
2023-03-31T17:41:30.178Z,98107.63
2023-03-31T17:43:58.953Z,98106.06
2023-03-31T17:46:27.581Z,98106.19
2023-03-31T17:48:58.890Z,98108.00
2023-03-31T17:51:28.026Z,98114.06
2023-03-31T17:53:56.407Z,98109.91
2023-03-31T17:56:27.443Z,98116.09
2023-03-31T17:58:57.464Z,98120.63
2023-03-31T18:01:26.102Z,98133.69
2023-03-31T18:03:57.879Z,98140.06
2023-03-31T18:06:26.441Z,98151.38
2023-03-31T18:08:54.884Z,98159.25
2023-03-31T18:11:23.435Z,98157.78
2023-03-31T18:13:51.988Z,98159.69
2023-03-31T18:16:20.546Z,98161.59
2023-03-31T18:18:49.235Z,98166.00
2023-03-31T18:21:19.159Z,98161.91
2023-03-31T18:23:52.702Z,98163.75
2023-03-31T18:26:22.086Z,98164.00
2023-03-31T18:28:50.598Z,98161.69
2023-03-31T18:31:19.137Z,98150.75
2023-03-31T18:33:48.007Z,98162.75
2023-03-31T18:36:18.081Z,98155.16
2023-03-31T18:38:48.487Z,98158.84
2023-03-31T18:41:17.806Z,98160.72
2023-03-31T18:43:48.015Z,98161.72
2023-03-31T18:46:16.583Z,98160.16
2023-03-31T18:48:45.006Z,98153.44
2023-03-31T18:51:14.443Z,98159.56
2023-03-31T18:53:42.933Z,98156.25
2023-03-31T18:56:12.868Z,98151.28
2023-03-31T18:58:41.307Z,98165.88
2023-03-31T19:01:09.760Z,98166.91
2023-03-31T19:03:38.263Z,98172.97
2023-03-31T19:06:10.266Z,98171.41
2023-03-31T19:08:39.311Z,98177.53
2023-03-31T19:11:08.310Z,98167.53
2023-03-31T19:13:38.455Z,98168.56
2023-03-31T19:16:07.489Z,98178.16
2023-03-31T19:18:36.515Z,98168.06
2023-03-31T19:21:05.045Z,98171.63
2023-03-31T19:23:34.449Z,98166.63
2023-03-31T19:26:04.082Z,98182.06
2023-03-31T19:28:32.625Z,98184.66
2023-03-31T19:31:04.965Z,98181.31
2023-03-31T19:33:33.583Z,98189.91
2023-03-31T19:36:02.243Z,98185.56
2023-03-31T19:38:32.442Z,98189.00
2023-03-31T19:41:01.371Z,98187.28
2023-03-31T19:43:30.882Z,98188.97
2023-03-31T19:46:00.561Z,98194.19
2023-03-31T19:48:34.291Z,98189.19
2023-03-31T19:51:06.242Z,98197.78
2023-03-31T19:53:35.112Z,98198.63
2023-03-31T19:56:04.913Z,98191.94
2023-03-31T19:58:35.435Z,98190.28
2023-03-31T20:01:04.829Z,98192.03
2023-03-31T20:03:35.149Z,98199.00
2023-03-31T20:06:06.212Z,98199.16
2023-03-31T20:08:35.090Z,98200.94
2023-03-31T20:11:04.500Z,98200.16
2023-03-31T20:13:35.919Z,98195.91
2023-03-31T20:16:06.238Z,98196.03
2023-03-31T20:18:37.340Z,98194.41
2023-03-31T20:21:07.085Z,98189.34
2023-03-31T20:23:36.852Z,98191.25
2023-03-31T20:26:08.499Z,98188.06
2023-03-31T20:28:37.917Z,98190.75
2023-03-31T20:31:09.470Z,98192.59
2023-03-31T20:33:39.391Z,98186.72
2023-03-31T20:36:09.104Z,98188.56
2023-03-31T20:38:38.114Z,98191.34
2023-03-31T20:41:06.759Z,98184.63
2023-03-31T20:43:35.882Z,98182.19
2023-03-31T20:46:05.313Z,98189.06
2023-03-31T20:48:36.567Z,98185.72
2023-03-31T20:51:07.789Z,98185.78
2023-03-31T20:53:42.343Z,98188.53
2023-03-31T20:56:11.232Z,98192.03
2023-03-31T20:58:41.116Z,98196.34
2023-03-31T21:01:11.190Z,98196.47
2023-03-31T21:03:39.683Z,98200.91
2023-03-31T21:06:11.332Z,98207.03
2023-03-31T21:08:40.906Z,98209.72
2023-03-31T21:11:10.304Z,98200.47
2023-03-31T21:13:39.071Z,98205.72
2023-03-31T21:16:07.545Z,98203.28
2023-03-31T21:18:37.755Z,98200.84
2023-03-31T21:21:07.685Z,98202.59
2023-03-31T21:23:38.098Z,98201.81
2023-03-31T21:26:07.641Z,98201.09
2023-03-31T21:28:37.717Z,98200.28
2023-03-31T21:31:07.296Z,98207.03
2023-03-31T21:33:37.962Z,98207.88
2023-03-31T21:36:08.011Z,98210.41
2023-03-31T21:38:38.306Z,98206.13
2023-03-31T21:41:07.957Z,98201.81
2023-03-31T21:43:36.907Z,98206.13
2023-03-31T21:46:05.503Z,98208.66
2023-03-31T21:48:34.205Z,98210.38
2023-03-31T21:51:03.275Z,98208.72
2023-03-31T21:53:32.634Z,98206.22
2023-03-31T21:56:02.943Z,98204.59
2023-03-31T21:58:31.379Z,98185.03
2023-03-31T22:01:01.356Z,98196.22
2023-03-31T22:03:32.520Z,98186.13
2023-03-31T22:06:01.647Z,98190.50
2023-03-31T22:08:31.845Z,98197.34
2023-03-31T22:11:00.701Z,98193.28
2023-03-31T22:13:31.076Z,98198.44
2023-03-31T22:16:02.133Z,98203.59
2023-03-31T22:18:30.716Z,98200.31
2023-03-31T22:20:59.486Z,98202.97
2023-03-31T22:23:28.708Z,98197.09
2023-03-31T22:25:57.132Z,98186.13
2023-03-31T22:28:25.590Z,98180.25
2023-03-31T22:30:55.400Z,98180.31
2023-03-31T22:33:23.830Z,98172.78
2023-03-31T22:35:52.234Z,98171.13
2023-03-31T22:38:20.709Z,98166.88
2023-03-31T22:40:49.121Z,98175.38
2023-03-31T22:43:17.831Z,98167.72
2023-03-31T22:45:46.380Z,98170.34
2023-03-31T22:48:16.328Z,98166.97
2023-03-31T22:50:45.878Z,98164.50
2023-03-31T22:53:14.344Z,98162.00
2023-03-31T22:55:44.190Z,98168.03
2023-03-31T22:58:23.969Z,98156.22
2023-03-31T23:00:58.454Z,98150.38
2023-03-31T23:03:28.473Z,98149.56
2023-03-31T23:05:56.941Z,98137.75
2023-03-31T23:08:25.340Z,98141.97
2023-03-31T23:10:58.324Z,98137.00
2023-03-31T23:13:26.839Z,98128.78
2023-03-31T23:15:55.752Z,98136.56
2023-03-31T23:18:25.141Z,98131.63
2023-03-31T23:20:55.030Z,98130.03
2023-03-31T23:23:23.289Z,98132.66
2023-03-31T23:25:51.741Z,98126.97
2023-03-31T23:28:20.195Z,98116.94
2023-03-31T23:30:53.228Z,98112.78
2023-03-31T23:33:21.748Z,98109.44
2023-03-31T23:35:51.316Z,98103.50
2023-03-31T23:38:21.466Z,98106.22
2023-03-31T23:40:49.866Z,98113.22
2023-03-31T23:43:18.318Z,98115.78
2023-03-31T23:45:47.040Z,98116.56
2023-03-31T23:48:15.685Z,98114.09
2023-03-31T23:50:44.067Z,98118.47
2023-03-31T23:53:13.112Z,98115.16
2023-03-31T23:55:42.953Z,98112.78
2023-03-31T23:58:11.435Z,98112.13
